sensor_id;sensor_type;location;lat;lon;timestamp;P1;durP1;ratioP1;P2;durP2;ratioP2
10882;SDS011;5494;51.796;10.952;2024-03-02T00:01:35;21.87;;;14.07;;
10882;SDS011;5494;51.796;10.952;2024-03-02T00:04:03;20.83;;;13.97;;
10882;SDS011;5494;51.796;10.952;2024-03-02T00:06:33;20.73;;;13.73;;
10882;SDS011;5494;51.796;10.952;2024-03-02T00:09:01;19.77;;;13.10;;
10882;SDS011;5494;51.796;10.952;2024-03-02T00:11:34;22.50;;;14.27;;
10882;SDS011;5494;51.796;10.952;2024-03-02T00:14:04;20.07;;;13.47;;
10882;SDS011;5494;51.796;10.952;2024-03-02T00:16:32;18.27;;;13.50;;
10882;SDS011;5494;51.796;10.952;2024-03-02T00:19:01;20.63;;;13.57;;
10882;SDS011;5494;51.796;10.952;2024-03-02T00:21:31;20.80;;;14.13;;
10882;SDS011;5494;51.796;10.952;2024-03-02T00:24:00;21.80;;;14.83;;
10882;SDS011;5494;51.796;10.952;2024-03-02T00:26:44;22.93;;;14.43;;
10882;SDS011;5494;51.796;10.952;2024-03-02T00:29:14;19.43;;;13.63;;
10882;SDS011;5494;51.796;10.952;2024-03-02T00:31:45;20.87;;;14.53;;
10882;SDS011;5494;51.796;10.952;2024-03-02T00:34:14;18.53;;;13.97;;
10882;SDS011;5494;51.796;10.952;2024-03-02T00:36:44;20.13;;;13.90;;
10882;SDS011;5494;51.796;10.952;2024-03-02T00:39:15;20.67;;;14.60;;
10882;SDS011;5494;51.796;10.952;2024-03-02T00:41:44;21.87;;;14.93;;
10882;SDS011;5494;51.796;10.952;2024-03-02T00:44:12;19.67;;;13.00;;
10882;SDS011;5494;51.796;10.952;2024-03-02T00:46:43;23.67;;;14.67;;
10882;SDS011;5494;51.796;10.952;2024-03-02T00:49:11;19.27;;;13.97;;
10882;SDS011;5494;51.796;10.952;2024-03-02T00:51:50;20.60;;;14.67;;
10882;SDS011;5494;51.796;10.952;2024-03-02T00:54:21;21.73;;;14.50;;
10882;SDS011;5494;51.796;10.952;2024-03-02T00:56:51;22.83;;;14.03;;
10882;SDS011;5494;51.796;10.952;2024-03-02T00:59:22;20.53;;;14.17;;
10882;SDS011;5494;51.796;10.952;2024-03-02T01:01:50;20.70;;;13.80;;
10882;SDS011;5494;51.796;10.952;2024-03-02T01:04:20;22.73;;;14.77;;
10882;SDS011;5494;51.796;10.952;2024-03-02T01:06:48;22.37;;;14.77;;
10882;SDS011;5494;51.796;10.952;2024-03-02T01:09:16;21.53;;;15.50;;
10882;SDS011;5494;51.796;10.952;2024-03-02T01:11:44;21.10;;;15.17;;
10882;SDS011;5494;51.796;10.952;2024-03-02T01:14:12;25.20;;;15.97;;
10882;SDS011;5494;51.796;10.952;2024-03-02T01:16:42;21.13;;;15.10;;
10882;SDS011;5494;51.796;10.952;2024-03-02T01:19:10;24.97;;;15.93;;
10882;SDS011;5494;51.796;10.952;2024-03-02T01:21:38;21.30;;;14.80;;
10882;SDS011;5494;51.796;10.952;2024-03-02T01:24:06;20.87;;;15.70;;
10882;SDS011;5494;51.796;10.952;2024-03-02T01:26:34;22.73;;;15.63;;
10882;SDS011;5494;51.796;10.952;2024-03-02T01:29:02;21.10;;;14.90;;
10882;SDS011;5494;51.796;10.952;2024-03-02T01:31:30;22.13;;;15.67;;
10882;SDS011;5494;51.796;10.952;2024-03-02T01:33:59;29.30;;;16.43;;
10882;SDS011;5494;51.796;10.952;2024-03-02T01:36:27;23.37;;;15.23;;
10882;SDS011;5494;51.796;10.952;2024-03-02T01:38:56;22.23;;;15.80;;
10882;SDS011;5494;51.796;10.952;2024-03-02T01:41:24;23.57;;;15.10;;
10882;SDS011;5494;51.796;10.952;2024-03-02T01:43:52;24.63;;;15.20;;
10882;SDS011;5494;51.796;10.952;2024-03-02T01:46:20;20.67;;;14.70;;
10882;SDS011;5494;51.796;10.952;2024-03-02T01:48:48;22.07;;;15.63;;
10882;SDS011;5494;51.796;10.952;2024-03-02T01:51:17;22.70;;;15.30;;
10882;SDS011;5494;51.796;10.952;2024-03-02T01:53:45;22.80;;;15.67;;
10882;SDS011;5494;51.796;10.952;2024-03-02T01:56:13;23.37;;;14.90;;
10882;SDS011;5494;51.796;10.952;2024-03-02T01:58:41;25.67;;;16.63;;
10882;SDS011;5494;51.796;10.952;2024-03-02T02:01:10;22.20;;;15.10;;
10882;SDS011;5494;51.796;10.952;2024-03-02T02:03:39;24.43;;;15.87;;
10882;SDS011;5494;51.796;10.952;2024-03-02T02:06:07;25.03;;;15.63;;
10882;SDS011;5494;51.796;10.952;2024-03-02T02:08:37;22.37;;;15.10;;
10882;SDS011;5494;51.796;10.952;2024-03-02T02:11:06;26.23;;;17.63;;
10882;SDS011;5494;51.796;10.952;2024-03-02T02:13:34;22.13;;;16.53;;
10882;SDS011;5494;51.796;10.952;2024-03-02T02:16:05;25.27;;;17.00;;
10882;SDS011;5494;51.796;10.952;2024-03-02T02:18:34;25.50;;;16.90;;
10882;SDS011;5494;51.796;10.952;2024-03-02T02:21:03;23.77;;;16.83;;
10882;SDS011;5494;51.796;10.952;2024-03-02T02:23:33;23.13;;;16.30;;
10882;SDS011;5494;51.796;10.952;2024-03-02T02:26:01;24.17;;;15.83;;
10882;SDS011;5494;51.796;10.952;2024-03-02T02:28:30;24.30;;;16.83;;
10882;SDS011;5494;51.796;10.952;2024-03-02T02:30:58;26.37;;;16.23;;
10882;SDS011;5494;51.796;10.952;2024-03-02T02:33:27;23.50;;;16.07;;
10882;SDS011;5494;51.796;10.952;2024-03-02T02:35:55;26.77;;;16.73;;
10882;SDS011;5494;51.796;10.952;2024-03-02T02:38:27;26.03;;;17.27;;
10882;SDS011;5494;51.796;10.952;2024-03-02T02:40:57;24.57;;;17.30;;
10882;SDS011;5494;51.796;10.952;2024-03-02T02:43:25;24.67;;;16.97;;
10882;SDS011;5494;51.796;10.952;2024-03-02T02:45:52;25.97;;;17.13;;
10882;SDS011;5494;51.796;10.952;2024-03-02T02:48:20;24.37;;;16.17;;
10882;SDS011;5494;51.796;10.952;2024-03-02T02:50:48;25.13;;;17.93;;
10882;SDS011;5494;51.796;10.952;2024-03-02T02:53:16;28.53;;;17.10;;
10882;SDS011;5494;51.796;10.952;2024-03-02T02:55:44;25.80;;;16.63;;
10882;SDS011;5494;51.796;10.952;2024-03-02T02:58:14;25.60;;;17.30;;
10882;SDS011;5494;51.796;10.952;2024-03-02T03:00:42;21.87;;;15.27;;
10882;SDS011;5494;51.796;10.952;2024-03-02T03:03:10;24.33;;;16.60;;
10882;SDS011;5494;51.796;10.952;2024-03-02T03:05:38;23.33;;;16.10;;
10882;SDS011;5494;51.796;10.952;2024-03-02T03:08:06;24.90;;;16.87;;
10882;SDS011;5494;51.796;10.952;2024-03-02T03:10:34;25.47;;;16.83;;
10882;SDS011;5494;51.796;10.952;2024-03-02T03:13:03;25.90;;;17.53;;
10882;SDS011;5494;51.796;10.952;2024-03-02T03:15:35;22.07;;;16.07;;
10882;SDS011;5494;51.796;10.952;2024-03-02T03:18:04;25.83;;;16.93;;
10882;SDS011;5494;51.796;10.952;2024-03-02T03:20:33;23.97;;;16.60;;
10882;SDS011;5494;51.796;10.952;2024-03-02T03:23:01;24.87;;;16.17;;
10882;SDS011;5494;51.796;10.952;2024-03-02T03:25:30;26.20;;;17.73;;
10882;SDS011;5494;51.796;10.952;2024-03-02T03:27:58;22.97;;;16.40;;
10882;SDS011;5494;51.796;10.952;2024-03-02T03:30:27;26.10;;;18.17;;
10882;SDS011;5494;51.796;10.952;2024-03-02T03:32:56;26.27;;;16.93;;
10882;SDS011;5494;51.796;10.952;2024-03-02T03:35:24;25.10;;;17.83;;
10882;SDS011;5494;51.796;10.952;2024-03-02T03:37:52;27.23;;;17.50;;
10882;SDS011;5494;51.796;10.952;2024-03-02T03:40:20;25.13;;;16.27;;
10882;SDS011;5494;51.796;10.952;2024-03-02T03:42:50;23.53;;;17.17;;
10882;SDS011;5494;51.796;10.952;2024-03-02T03:45:18;26.00;;;17.30;;
10882;SDS011;5494;51.796;10.952;2024-03-02T03:47:46;25.47;;;17.50;;
10882;SDS011;5494;51.796;10.952;2024-03-02T03:50:15;24.57;;;16.80;;
10882;SDS011;5494;51.796;10.952;2024-03-02T03:52:43;24.47;;;16.93;;
10882;SDS011;5494;51.796;10.952;2024-03-02T03:55:12;24.07;;;16.97;;
10882;SDS011;5494;51.796;10.952;2024-03-02T03:57:40;24.77;;;16.90;;
10882;SDS011;5494;51.796;10.952;2024-03-02T04:00:08;23.13;;;16.00;;
10882;SDS011;5494;51.796;10.952;2024-03-02T04:02:38;23.23;;;16.20;;
10882;SDS011;5494;51.796;10.952;2024-03-02T04:05:06;21.50;;;15.30;;
10882;SDS011;5494;51.796;10.952;2024-03-02T04:07:39;24.07;;;15.90;;
10882;SDS011;5494;51.796;10.952;2024-03-02T04:10:08;26.43;;;17.70;;
10882;SDS011;5494;51.796;10.952;2024-03-02T04:12:38;23.70;;;15.77;;
10882;SDS011;5494;51.796;10.952;2024-03-02T04:15:06;25.27;;;17.50;;
10882;SDS011;5494;51.796;10.952;2024-03-02T04:17:35;26.67;;;17.97;;
10882;SDS011;5494;51.796;10.952;2024-03-02T04:20:04;27.40;;;18.70;;
10882;SDS011;5494;51.796;10.952;2024-03-02T04:22:33;25.60;;;17.53;;
10882;SDS011;5494;51.796;10.952;2024-03-02T04:25:04;26.07;;;18.07;;
10882;SDS011;5494;51.796;10.952;2024-03-02T04:27:33;25.83;;;17.50;;
10882;SDS011;5494;51.796;10.952;2024-03-02T04:30:03;26.57;;;17.90;;
10882;SDS011;5494;51.796;10.952;2024-03-02T04:32:32;26.83;;;18.70;;
10882;SDS011;5494;51.796;10.952;2024-03-02T04:35:02;27.67;;;17.90;;
10882;SDS011;5494;51.796;10.952;2024-03-02T04:37:31;27.80;;;19.00;;
10882;SDS011;5494;51.796;10.952;2024-03-02T04:40:01;27.93;;;18.53;;
10882;SDS011;5494;51.796;10.952;2024-03-02T04:42:34;28.97;;;18.57;;
10882;SDS011;5494;51.796;10.952;2024-03-02T04:45:02;25.73;;;16.67;;
10882;SDS011;5494;51.796;10.952;2024-03-02T04:47:31;26.07;;;16.97;;
10882;SDS011;5494;51.796;10.952;2024-03-02T04:49:59;23.60;;;16.93;;
10882;SDS011;5494;51.796;10.952;2024-03-02T04:52:27;27.57;;;16.87;;
10882;SDS011;5494;51.796;10.952;2024-03-02T04:54:55;27.10;;;17.30;;
10882;SDS011;5494;51.796;10.952;2024-03-02T04:57:57;24.43;;;16.93;;
10882;SDS011;5494;51.796;10.952;2024-03-02T05:00:25;24.97;;;17.80;;
10882;SDS011;5494;51.796;10.952;2024-03-02T05:02:53;25.80;;;17.00;;
10882;SDS011;5494;51.796;10.952;2024-03-02T05:05:21;25.57;;;17.37;;
10882;SDS011;5494;51.796;10.952;2024-03-02T05:07:49;25.43;;;16.93;;
10882;SDS011;5494;51.796;10.952;2024-03-02T05:10:17;25.63;;;17.50;;
10882;SDS011;5494;51.796;10.952;2024-03-02T05:12:45;26.90;;;17.70;;
10882;SDS011;5494;51.796;10.952;2024-03-02T05:15:25;26.83;;;17.97;;
10882;SDS011;5494;51.796;10.952;2024-03-02T05:17:54;26.93;;;18.30;;
10882;SDS011;5494;51.796;10.952;2024-03-02T05:20:23;29.33;;;19.20;;
10882;SDS011;5494;51.796;10.952;2024-03-02T05:22:51;29.47;;;20.57;;
10882;SDS011;5494;51.796;10.952;2024-03-02T05:25:19;28.77;;;19.33;;
10882;SDS011;5494;51.796;10.952;2024-03-02T05:27:47;27.43;;;18.93;;
10882;SDS011;5494;51.796;10.952;2024-03-02T05:30:15;26.97;;;18.13;;
10882;SDS011;5494;51.796;10.952;2024-03-02T05:32:45;26.20;;;18.70;;
10882;SDS011;5494;51.796;10.952;2024-03-02T05:35:13;27.73;;;18.10;;
10882;SDS011;5494;51.796;10.952;2024-03-02T05:37:41;27.73;;;18.63;;
10882;SDS011;5494;51.796;10.952;2024-03-02T05:40:09;24.77;;;17.00;;
10882;SDS011;5494;51.796;10.952;2024-03-02T05:42:39;26.00;;;17.43;;
10882;SDS011;5494;51.796;10.952;2024-03-02T05:45:08;27.17;;;17.20;;
10882;SDS011;5494;51.796;10.952;2024-03-02T05:47:36;25.67;;;17.63;;
10882;SDS011;5494;51.796;10.952;2024-03-02T05:50:06;24.27;;;17.23;;
10882;SDS011;5494;51.796;10.952;2024-03-02T05:52:35;27.83;;;17.83;;
10882;SDS011;5494;51.796;10.952;2024-03-02T05:55:03;24.27;;;16.30;;
10882;SDS011;5494;51.796;10.952;2024-03-02T05:57:32;26.53;;;18.17;;
10882;SDS011;5494;51.796;10.952;2024-03-02T06:00:14;32.67;;;23.97;;
10882;SDS011;5494;51.796;10.952;2024-03-02T06:02:43;37.00;;;25.80;;
10882;SDS011;5494;51.796;10.952;2024-03-02T06:05:13;25.60;;;19.50;;
10882;SDS011;5494;51.796;10.952;2024-03-02T06:07:42;26.10;;;17.80;;
10882;SDS011;5494;51.796;10.952;2024-03-02T06:10:10;25.47;;;17.50;;
10882;SDS011;5494;51.796;10.952;2024-03-02T06:12:40;22.80;;;16.23;;
10882;SDS011;5494;51.796;10.952;2024-03-02T06:15:09;24.47;;;17.20;;
10882;SDS011;5494;51.796;10.952;2024-03-02T06:17:37;22.73;;;15.37;;
10882;SDS011;5494;51.796;10.952;2024-03-02T06:20:06;28.73;;;16.47;;
10882;SDS011;5494;51.796;10.952;2024-03-02T06:22:37;22.77;;;15.80;;
10882;SDS011;5494;51.796;10.952;2024-03-02T06:25:05;24.07;;;15.83;;
10882;SDS011;5494;51.796;10.952;2024-03-02T06:27:34;24.00;;;16.80;;
10882;SDS011;5494;51.796;10.952;2024-03-02T06:30:03;22.27;;;15.40;;
10882;SDS011;5494;51.796;10.952;2024-03-02T06:32:32;26.00;;;15.73;;
10882;SDS011;5494;51.796;10.952;2024-03-02T06:35:00;20.17;;;14.80;;
10882;SDS011;5494;51.796;10.952;2024-03-02T06:37:30;23.77;;;15.10;;
10882;SDS011;5494;51.796;10.952;2024-03-02T06:39:59;20.57;;;15.00;;
10882;SDS011;5494;51.796;10.952;2024-03-02T06:42:28;23.83;;;14.97;;
10882;SDS011;5494;51.796;10.952;2024-03-02T06:44:59;21.07;;;15.43;;
10882;SDS011;5494;51.796;10.952;2024-03-02T06:47:28;24.40;;;16.23;;
10882;SDS011;5494;51.796;10.952;2024-03-02T06:49:56;23.57;;;15.70;;
10882;SDS011;5494;51.796;10.952;2024-03-02T06:52:24;23.10;;;16.80;;
10882;SDS011;5494;51.796;10.952;2024-03-02T06:54:52;28.93;;;17.37;;
10882;SDS011;5494;51.796;10.952;2024-03-02T06:57:22;25.53;;;17.23;;
10882;SDS011;5494;51.796;10.952;2024-03-02T06:59:51;24.20;;;17.67;;
10882;SDS011;5494;51.796;10.952;2024-03-02T07:02:21;29.57;;;20.60;;
10882;SDS011;5494;51.796;10.952;2024-03-02T07:04:50;28.00;;;19.23;;
10882;SDS011;5494;51.796;10.952;2024-03-02T07:07:18;23.97;;;18.93;;
10882;SDS011;5494;51.796;10.952;2024-03-02T07:09:46;29.50;;;20.70;;
10882;SDS011;5494;51.796;10.952;2024-03-02T07:12:14;28.03;;;20.20;;
10882;SDS011;5494;51.796;10.952;2024-03-02T07:14:44;27.93;;;20.63;;
10882;SDS011;5494;51.796;10.952;2024-03-02T07:17:37;29.97;;;20.33;;
10882;SDS011;5494;51.796;10.952;2024-03-02T07:20:05;30.47;;;21.43;;
10882;SDS011;5494;51.796;10.952;2024-03-02T07:22:34;31.77;;;21.13;;
10882;SDS011;5494;51.796;10.952;2024-03-02T07:25:07;26.77;;;20.27;;
10882;SDS011;5494;51.796;10.952;2024-03-02T07:27:55;28.37;;;19.43;;
10882;SDS011;5494;51.796;10.952;2024-03-02T07:30:24;27.07;;;18.00;;
10882;SDS011;5494;51.796;10.952;2024-03-02T07:32:53;29.73;;;20.07;;
10882;SDS011;5494;51.796;10.952;2024-03-02T07:35:21;25.87;;;19.40;;
10882;SDS011;5494;51.796;10.952;2024-03-02T07:37:53;27.47;;;19.03;;
10882;SDS011;5494;51.796;10.952;2024-03-02T07:40:21;24.80;;;17.97;;
10882;SDS011;5494;51.796;10.952;2024-03-02T07:42:49;26.30;;;17.67;;
10882;SDS011;5494;51.796;10.952;2024-03-02T07:45:18;23.30;;;16.40;;
10882;SDS011;5494;51.796;10.952;2024-03-02T07:47:47;24.10;;;16.40;;
10882;SDS011;5494;51.796;10.952;2024-03-02T07:50:16;22.67;;;16.63;;
10882;SDS011;5494;51.796;10.952;2024-03-02T07:52:44;21.07;;;15.47;;
10882;SDS011;5494;51.796;10.952;2024-03-02T07:55:12;22.20;;;16.13;;
10882;SDS011;5494;51.796;10.952;2024-03-02T07:57:40;18.77;;;14.47;;
10882;SDS011;5494;51.796;10.952;2024-03-02T08:00:09;21.70;;;16.07;;
10882;SDS011;5494;51.796;10.952;2024-03-02T08:02:39;23.83;;;15.73;;
10882;SDS011;5494;51.796;10.952;2024-03-02T08:05:10;22.87;;;16.87;;
10882;SDS011;5494;51.796;10.952;2024-03-02T08:07:38;23.73;;;17.40;;
10882;SDS011;5494;51.796;10.952;2024-03-02T08:10:06;24.80;;;16.13;;
10882;SDS011;5494;51.796;10.952;2024-03-02T08:12:35;25.23;;;17.83;;
10882;SDS011;5494;51.796;10.952;2024-03-02T08:15:04;27.10;;;19.27;;
10882;SDS011;5494;51.796;10.952;2024-03-02T08:17:33;24.40;;;16.17;;
10882;SDS011;5494;51.796;10.952;2024-03-02T08:20:04;22.13;;;17.07;;
10882;SDS011;5494;51.796;10.952;2024-03-02T08:22:35;22.50;;;17.23;;
10882;SDS011;5494;51.796;10.952;2024-03-02T08:25:04;18.90;;;13.90;;
10882;SDS011;5494;51.796;10.952;2024-03-02T08:27:32;21.57;;;15.10;;
10882;SDS011;5494;51.796;10.952;2024-03-02T08:30:01;18.10;;;13.63;;
10882;SDS011;5494;51.796;10.952;2024-03-02T08:32:32;18.80;;;13.37;;
10882;SDS011;5494;51.796;10.952;2024-03-02T08:35:01;18.43;;;12.73;;
10882;SDS011;5494;51.796;10.952;2024-03-02T08:37:29;18.40;;;13.13;;
10882;SDS011;5494;51.796;10.952;2024-03-02T08:39:59;19.00;;;13.03;;
10882;SDS011;5494;51.796;10.952;2024-03-02T08:42:30;17.30;;;13.37;;
10882;SDS011;5494;51.796;10.952;2024-03-02T08:44:58;19.70;;;13.30;;
10882;SDS011;5494;51.796;10.952;2024-03-02T08:47:27;18.17;;;13.10;;
10882;SDS011;5494;51.796;10.952;2024-03-02T08:49:55;19.10;;;12.73;;
10882;SDS011;5494;51.796;10.952;2024-03-02T08:52:27;16.37;;;12.70;;
10882;SDS011;5494;51.796;10.952;2024-03-02T08:54:55;17.00;;;12.73;;
10882;SDS011;5494;51.796;10.952;2024-03-02T08:57:24;18.80;;;13.30;;
10882;SDS011;5494;51.796;10.952;2024-03-02T08:59:52;19.37;;;13.23;;
10882;SDS011;5494;51.796;10.952;2024-03-02T09:02:20;19.67;;;12.57;;
10882;SDS011;5494;51.796;10.952;2024-03-02T09:04:49;16.87;;;11.93;;
10882;SDS011;5494;51.796;10.952;2024-03-02T09:07:17;15.97;;;12.63;;
10882;SDS011;5494;51.796;10.952;2024-03-02T09:09:45;15.87;;;11.90;;
10882;SDS011;5494;51.796;10.952;2024-03-02T09:12:13;19.73;;;14.20;;
10882;SDS011;5494;51.796;10.952;2024-03-02T09:14:43;16.50;;;12.20;;
10882;SDS011;5494;51.796;10.952;2024-03-02T09:17:12;12.77;;;9.70;;
10882;SDS011;5494;51.796;10.952;2024-03-02T09:19:40;13.20;;;9.50;;
10882;SDS011;5494;51.796;10.952;2024-03-02T09:22:08;13.43;;;9.10;;
10882;SDS011;5494;51.796;10.952;2024-03-02T09:24:37;15.67;;;12.33;;
10882;SDS011;5494;51.796;10.952;2024-03-02T09:27:05;14.60;;;12.07;;
10882;SDS011;5494;51.796;10.952;2024-03-02T09:29:33;12.63;;;8.80;;
10882;SDS011;5494;51.796;10.952;2024-03-02T09:32:02;9.37;;;7.80;;
10882;SDS011;5494;51.796;10.952;2024-03-02T09:34:34;9.83;;;7.80;;
10882;SDS011;5494;51.796;10.952;2024-03-02T09:37:02;9.87;;;7.47;;
10882;SDS011;5494;51.796;10.952;2024-03-02T09:39:31;9.90;;;7.33;;
10882;SDS011;5494;51.796;10.952;2024-03-02T09:41:59;10.13;;;7.03;;
10882;SDS011;5494;51.796;10.952;2024-03-02T09:44:28;8.40;;;7.00;;
10882;SDS011;5494;51.796;10.952;2024-03-02T09:46:57;8.67;;;6.93;;
10882;SDS011;5494;51.796;10.952;2024-03-02T09:49:26;9.20;;;7.23;;
10882;SDS011;5494;51.796;10.952;2024-03-02T09:51:54;10.43;;;7.30;;
10882;SDS011;5494;51.796;10.952;2024-03-02T09:54:23;8.90;;;6.27;;
10882;SDS011;5494;51.796;10.952;2024-03-02T09:56:51;10.67;;;8.23;;
10882;SDS011;5494;51.796;10.952;2024-03-02T09:59:19;8.10;;;6.63;;
10882;SDS011;5494;51.796;10.952;2024-03-02T10:01:55;9.23;;;7.07;;
10882;SDS011;5494;51.796;10.952;2024-03-02T10:04:27;9.87;;;6.80;;
10882;SDS011;5494;51.796;10.952;2024-03-02T10:07:13;7.53;;;6.00;;
10882;SDS011;5494;51.796;10.952;2024-03-02T10:09:44;10.13;;;6.80;;
10882;SDS011;5494;51.796;10.952;2024-03-02T10:12:15;8.80;;;6.70;;
10882;SDS011;5494;51.796;10.952;2024-03-02T10:14:44;8.80;;;6.87;;
10882;SDS011;5494;51.796;10.952;2024-03-02T10:17:16;8.70;;;6.80;;
10882;SDS011;5494;51.796;10.952;2024-03-02T10:19:46;12.10;;;7.00;;
10882;SDS011;5494;51.796;10.952;2024-03-02T10:22:14;10.47;;;6.70;;
10882;SDS011;5494;51.796;10.952;2024-03-02T10:24:43;7.00;;;5.80;;
10882;SDS011;5494;51.796;10.952;2024-03-02T10:27:14;8.77;;;6.47;;
10882;SDS011;5494;51.796;10.952;2024-03-02T10:29:45;8.87;;;6.10;;
10882;SDS011;5494;51.796;10.952;2024-03-02T10:32:14;7.57;;;5.90;;
10882;SDS011;5494;51.796;10.952;2024-03-02T10:34:45;8.67;;;6.30;;
10882;SDS011;5494;51.796;10.952;2024-03-02T10:37:14;8.60;;;5.67;;
10882;SDS011;5494;51.796;10.952;2024-03-02T10:39:44;12.57;;;6.97;;
10882;SDS011;5494;51.796;10.952;2024-03-02T10:42:14;9.77;;;6.10;;
10882;SDS011;5494;51.796;10.952;2024-03-02T10:44:45;9.87;;;5.60;;
10882;SDS011;5494;51.796;10.952;2024-03-02T10:47:13;8.33;;;5.87;;
10882;SDS011;5494;51.796;10.952;2024-03-02T10:49:46;8.63;;;6.70;;
10882;SDS011;5494;51.796;10.952;2024-03-02T10:52:18;8.60;;;6.77;;
10882;SDS011;5494;51.796;10.952;2024-03-02T10:54:49;8.27;;;5.80;;
10882;SDS011;5494;51.796;10.952;2024-03-02T10:57:17;7.20;;;5.63;;
10882;SDS011;5494;51.796;10.952;2024-03-02T10:59:51;8.63;;;6.20;;
10882;SDS011;5494;51.796;10.952;2024-03-02T11:02:23;8.70;;;5.97;;
10882;SDS011;5494;51.796;10.952;2024-03-02T11:04:55;7.63;;;5.40;;
10882;SDS011;5494;51.796;10.952;2024-03-02T11:07:23;11.27;;;6.07;;
10882;SDS011;5494;51.796;10.952;2024-03-02T11:09:57;7.47;;;5.80;;
10882;SDS011;5494;51.796;10.952;2024-03-02T11:12:36;6.33;;;4.93;;
10882;SDS011;5494;51.796;10.952;2024-03-02T11:15:08;6.03;;;4.90;;
10882;SDS011;5494;51.796;10.952;2024-03-02T11:17:40;6.37;;;4.70;;
10882;SDS011;5494;51.796;10.952;2024-03-02T11:20:11;6.93;;;5.30;;
10882;SDS011;5494;51.796;10.952;2024-03-02T11:22:41;9.63;;;5.13;;
10882;SDS011;5494;51.796;10.952;2024-03-02T11:25:22;6.33;;;4.70;;
10882;SDS011;5494;51.796;10.952;2024-03-02T11:28:02;4.83;;;3.63;;
10882;SDS011;5494;51.796;10.952;2024-03-02T11:30:50;6.03;;;4.50;;
10882;SDS011;5494;51.796;10.952;2024-03-02T11:33:24;5.13;;;4.07;;
10882;SDS011;5494;51.796;10.952;2024-03-02T11:35:55;4.30;;;3.40;;
10882;SDS011;5494;51.796;10.952;2024-03-02T11:38:28;5.77;;;3.70;;
10882;SDS011;5494;51.796;10.952;2024-03-02T11:41:00;5.53;;;3.80;;
10882;SDS011;5494;51.796;10.952;2024-03-02T11:43:33;5.93;;;4.27;;
10882;SDS011;5494;51.796;10.952;2024-03-02T11:46:06;5.50;;;4.00;;
10882;SDS011;5494;51.796;10.952;2024-03-02T11:48:35;6.37;;;4.50;;
10882;SDS011;5494;51.796;10.952;2024-03-02T11:51:06;6.23;;;4.63;;
10882;SDS011;5494;51.796;10.952;2024-03-02T11:53:34;5.60;;;4.10;;
10882;SDS011;5494;51.796;10.952;2024-03-02T11:56:06;5.83;;;4.23;;
10882;SDS011;5494;51.796;10.952;2024-03-02T11:58:38;6.70;;;4.57;;
10882;SDS011;5494;51.796;10.952;2024-03-02T12:01:08;5.90;;;4.20;;
10882;SDS011;5494;51.796;10.952;2024-03-02T12:03:37;6.17;;;4.57;;
10882;SDS011;5494;51.796;10.952;2024-03-02T12:06:07;5.97;;;4.30;;
10882;SDS011;5494;51.796;10.952;2024-03-02T12:08:35;8.13;;;4.93;;
10882;SDS011;5494;51.796;10.952;2024-03-02T12:11:04;7.53;;;5.03;;
10882;SDS011;5494;51.796;10.952;2024-03-02T12:13:33;6.87;;;4.77;;
10882;SDS011;5494;51.796;10.952;2024-03-02T12:16:01;6.37;;;4.53;;
10882;SDS011;5494;51.796;10.952;2024-03-02T12:18:30;6.93;;;4.90;;
10882;SDS011;5494;51.796;10.952;2024-03-02T12:20:59;5.50;;;4.77;;
10882;SDS011;5494;51.796;10.952;2024-03-02T12:23:30;5.83;;;4.70;;
10882;SDS011;5494;51.796;10.952;2024-03-02T12:25:59;6.30;;;4.17;;
10882;SDS011;5494;51.796;10.952;2024-03-02T12:28:27;4.83;;;3.53;;
10882;SDS011;5494;51.796;10.952;2024-03-02T12:30:57;5.37;;;4.37;;
10882;SDS011;5494;51.796;10.952;2024-03-02T12:33:25;6.53;;;4.63;;
10882;SDS011;5494;51.796;10.952;2024-03-02T12:35:56;7.07;;;4.50;;
10882;SDS011;5494;51.796;10.952;2024-03-02T12:38:25;5.27;;;4.17;;
10882;SDS011;5494;51.796;10.952;2024-03-02T12:40:54;4.60;;;3.10;;
10882;SDS011;5494;51.796;10.952;2024-03-02T12:43:23;3.83;;;2.60;;
10882;SDS011;5494;51.796;10.952;2024-03-02T12:45:51;4.57;;;2.97;;
10882;SDS011;5494;51.796;10.952;2024-03-02T12:48:22;7.93;;;2.90;;
10882;SDS011;5494;51.796;10.952;2024-03-02T12:50:50;4.53;;;2.93;;
10882;SDS011;5494;51.796;10.952;2024-03-02T12:53:18;5.17;;;2.90;;
10882;SDS011;5494;51.796;10.952;2024-03-02T12:55:48;3.13;;;2.63;;
10882;SDS011;5494;51.796;10.952;2024-03-02T12:58:18;6.13;;;2.90;;
10882;SDS011;5494;51.796;10.952;2024-03-02T13:00:47;4.53;;;3.13;;
10882;SDS011;5494;51.796;10.952;2024-03-02T13:03:17;5.43;;;3.10;;
10882;SDS011;5494;51.796;10.952;2024-03-02T13:05:49;2.70;;;2.30;;
10882;SDS011;5494;51.796;10.952;2024-03-02T13:08:17;3.87;;;2.77;;
10882;SDS011;5494;51.796;10.952;2024-03-02T13:10:45;4.57;;;2.53;;
10882;SDS011;5494;51.796;10.952;2024-03-02T13:13:13;3.10;;;2.20;;
10882;SDS011;5494;51.796;10.952;2024-03-02T13:15:43;3.27;;;2.30;;
10882;SDS011;5494;51.796;10.952;2024-03-02T13:18:11;4.27;;;2.50;;
10882;SDS011;5494;51.796;10.952;2024-03-02T13:20:40;4.93;;;2.80;;
10882;SDS011;5494;51.796;10.952;2024-03-02T13:23:08;5.70;;;3.10;;
10882;SDS011;5494;51.796;10.952;2024-03-02T13:25:36;4.67;;;3.23;;
10882;SDS011;5494;51.796;10.952;2024-03-02T13:28:05;8.70;;;4.97;;
10882;SDS011;5494;51.796;10.952;2024-03-02T13:30:33;5.23;;;3.10;;
10882;SDS011;5494;51.796;10.952;2024-03-02T13:33:03;3.40;;;2.70;;
10882;SDS011;5494;51.796;10.952;2024-03-02T13:35:32;5.80;;;2.50;;
10882;SDS011;5494;51.796;10.952;2024-03-02T13:38:00;4.13;;;2.10;;
10882;SDS011;5494;51.796;10.952;2024-03-02T13:40:27;3.97;;;2.27;;
10882;SDS011;5494;51.796;10.952;2024-03-02T13:42:57;4.33;;;2.63;;
10882;SDS011;5494;51.796;10.952;2024-03-02T13:45:25;3.60;;;2.60;;
10882;SDS011;5494;51.796;10.952;2024-03-02T13:47:54;3.33;;;2.57;;
10882;SDS011;5494;51.796;10.952;2024-03-02T13:50:23;2.70;;;2.40;;
10882;SDS011;5494;51.796;10.952;2024-03-02T13:52:51;4.23;;;2.50;;
10882;SDS011;5494;51.796;10.952;2024-03-02T13:55:19;2.93;;;2.37;;
10882;SDS011;5494;51.796;10.952;2024-03-02T13:57:47;3.40;;;2.40;;
10882;SDS011;5494;51.796;10.952;2024-03-02T14:00:16;3.60;;;2.57;;
10882;SDS011;5494;51.796;10.952;2024-03-02T14:02:46;3.70;;;2.57;;
10882;SDS011;5494;51.796;10.952;2024-03-02T14:05:16;5.43;;;3.37;;
10882;SDS011;5494;51.796;10.952;2024-03-02T14:07:46;5.67;;;3.00;;
10882;SDS011;5494;51.796;10.952;2024-03-02T14:10:14;5.73;;;3.93;;
10882;SDS011;5494;51.796;10.952;2024-03-02T14:12:44;4.83;;;3.90;;
10882;SDS011;5494;51.796;10.952;2024-03-02T14:15:12;6.87;;;4.33;;
10882;SDS011;5494;51.796;10.952;2024-03-02T14:17:41;6.90;;;4.60;;
10882;SDS011;5494;51.796;10.952;2024-03-02T14:20:10;7.10;;;4.33;;
10882;SDS011;5494;51.796;10.952;2024-03-02T14:22:39;7.60;;;5.00;;
10882;SDS011;5494;51.796;10.952;2024-03-02T14:25:09;6.40;;;4.23;;
10882;SDS011;5494;51.796;10.952;2024-03-02T14:27:37;6.27;;;4.53;;
10882;SDS011;5494;51.796;10.952;2024-03-02T14:30:09;5.40;;;4.53;;
10882;SDS011;5494;51.796;10.952;2024-03-02T14:32:38;6.03;;;4.50;;
10882;SDS011;5494;51.796;10.952;2024-03-02T14:35:07;7.63;;;4.20;;
10882;SDS011;5494;51.796;10.952;2024-03-02T14:37:37;4.97;;;3.40;;
10882;SDS011;5494;51.796;10.952;2024-03-02T14:40:06;4.93;;;3.47;;
10882;SDS011;5494;51.796;10.952;2024-03-02T14:42:38;4.03;;;3.40;;
10882;SDS011;5494;51.796;10.952;2024-03-02T14:45:07;6.47;;;3.63;;